Jamestown, Canada
Current Conditions -  °F | °C
As of 3:00 AM on Wednesday 22 Oct 2014 (Local Time) from CYQX Reporting Station
Broken Clouds Broken Clouds  
Wind Chill: 37°   Ceiling: 3700
Heat Index: 43°   Visibility: 20mi
Dew Point: 37°   Wind: 10mph
Humidity: 81%   Direction: 270°W
Pressure: 30.3"   Gusts: NA
Location:  48.43°N, 53.8°W
Report Text: CYQX 220500Z 27009KT 20SM FEW012 BKN037 06/03 A3030 RMK SC1SC6 SLP264
Loading
Personal Weather Stations






























Interactive Weather Map
Tropical Storm Tracking
New forecast layout! Learn more

10-Day Weather Forecast

Advertisements
Track Severe Weather on mobile